createdAt,value
2023-01-30T00:01:58.770Z,7.35
2023-01-30T00:04:28.278Z,7.27
2023-01-30T00:06:58.082Z,7.27
2023-01-30T00:09:28.890Z,7.15
2023-01-30T00:11:58.584Z,7.34
2023-01-30T00:14:27.982Z,6.11
2023-01-30T00:16:57.742Z,7.13
2023-01-30T00:19:27.075Z,7.23
2023-01-30T00:21:58.848Z,7.28
2023-01-30T00:24:29.742Z,7.35
2023-01-30T00:26:59.528Z,7.48
2023-01-30T00:29:29.084Z,7.04
2023-01-30T00:31:58.732Z,7.28
2023-01-30T00:34:30.334Z,7.27
2023-01-30T00:37:08.166Z,7.09
2023-01-30T00:39:39.518Z,7.16
2023-01-30T00:42:27.851Z,7.32
2023-01-30T00:45:15.140Z,7.34
2023-01-30T00:47:45.085Z,7.37
2023-01-30T00:50:14.791Z,7.42
2023-01-30T00:52:46.130Z,7.44
2023-01-30T00:55:19.770Z,7.16
2023-01-30T00:57:49.841Z,7.18
2023-01-30T01:00:20.999Z,7.41
2023-01-30T01:02:50.275Z,7.35
2023-01-30T01:05:20.832Z,7.27
2023-01-30T01:07:50.485Z,7.36
2023-01-30T01:10:21.890Z,7.29
2023-01-30T01:12:53.406Z,7.37
2023-01-30T01:15:24.726Z,7.20
2023-01-30T01:17:55.006Z,7.26
2023-01-30T01:20:24.852Z,7.28
2023-01-30T01:22:56.094Z,7.39
2023-01-30T01:25:29.554Z,6.93
2023-01-30T01:27:59.275Z,7.06
2023-01-30T01:30:28.493Z,7.35
2023-01-30T01:33:00.915Z,7.21
2023-01-30T01:35:30.716Z,6.78
2023-01-30T01:38:00.394Z,7.32
2023-01-30T01:40:49.011Z,7.34
2023-01-30T01:43:23.662Z,7.24
2023-01-30T01:46:00.249Z,7.32
2023-01-30T01:48:32.436Z,7.32
2023-01-30T01:51:06.781Z,7.13
2023-01-30T01:53:41.431Z,7.03
2023-01-30T01:56:14.106Z,7.29
2023-01-30T01:58:47.385Z,7.16
2023-01-30T02:01:16.896Z,7.00
2023-01-30T02:03:53.493Z,6.90
2023-01-30T02:06:24.689Z,7.01
2023-01-30T02:08:59.369Z,6.91
2023-01-30T02:11:36.233Z,6.93
2023-01-30T02:14:08.013Z,6.98
2023-01-30T02:16:38.030Z,6.92
2023-01-30T02:19:20.772Z,6.60
2023-01-30T02:22:19.005Z,6.96
2023-01-30T02:25:05.335Z,6.86
2023-01-30T02:28:12.868Z,6.90
2023-01-30T02:31:13.245Z,6.97
2023-01-30T02:33:53.456Z,6.98
2023-01-30T02:36:30.315Z,7.04
2023-01-30T02:39:09.238Z,6.85
2023-01-30T02:41:50.229Z,6.96
2023-01-30T02:44:26.530Z,7.12
2023-01-30T02:47:05.322Z,7.16
2023-01-30T02:49:40.296Z,6.92
2023-01-30T02:52:12.905Z,7.11
2023-01-30T02:54:42.600Z,7.08
2023-01-30T02:57:21.892Z,6.90
2023-01-30T02:59:58.655Z,7.16
2023-01-30T03:03:10.684Z,6.99
2023-01-30T03:05:53.589Z,6.87
2023-01-30T03:08:32.398Z,7.25
2023-01-30T03:11:07.025Z,7.12
2023-01-30T03:13:46.864Z,7.09
2023-01-30T03:16:20.625Z,7.20
2023-01-30T03:18:51.425Z,7.11
2023-01-30T03:21:21.575Z,6.98
2023-01-30T03:23:51.174Z,7.19
2023-01-30T03:26:26.442Z,7.13
2023-01-30T03:28:56.259Z,7.14
2023-01-30T03:31:25.902Z,7.19
2023-01-30T03:33:57.037Z,7.22
2023-01-30T03:36:26.375Z,7.21
2023-01-30T03:38:59.563Z,7.19
2023-01-30T03:41:28.753Z,7.24
2023-01-30T03:43:58.061Z,7.30
2023-01-30T03:46:27.779Z,7.30
2023-01-30T03:48:58.705Z,7.30
2023-01-30T03:51:30.674Z,7.31
2023-01-30T03:54:00.370Z,7.21
2023-01-30T03:56:29.505Z,7.31
2023-01-30T03:58:59.221Z,7.19
2023-01-30T04:01:37.318Z,7.34
2023-01-30T04:04:08.385Z,7.28
2023-01-30T04:06:37.753Z,7.03
2023-01-30T04:09:08.243Z,7.02
2023-01-30T04:11:45.263Z,7.23
2023-01-30T04:14:15.434Z,7.27
2023-01-30T04:17:08.144Z,7.20
2023-01-30T04:19:59.329Z,7.05
2023-01-30T04:22:29.339Z,7.03
2023-01-30T04:24:58.908Z,7.02
2023-01-30T04:27:28.492Z,6.99
2023-01-30T04:30:30.763Z,7.05
2023-01-30T04:33:37.128Z,7.25
2023-01-30T04:36:12.034Z,7.28
2023-01-30T04:38:42.578Z,7.26
2023-01-30T04:41:12.245Z,7.36
2023-01-30T04:43:44.825Z,6.06
2023-01-30T04:46:34.703Z,7.48
2023-01-30T04:49:04.436Z,7.40
2023-01-30T04:51:35.982Z,7.28
2023-01-30T04:54:06.695Z,7.45
2023-01-30T04:56:35.972Z,7.17
2023-01-30T04:59:05.899Z,7.19
2023-01-30T05:01:41.411Z,7.13
2023-01-30T05:04:11.090Z,7.35
2023-01-30T05:06:41.822Z,7.22
2023-01-30T05:09:11.025Z,7.25
2023-01-30T05:11:40.216Z,6.91
2023-01-30T05:14:09.573Z,6.68
2023-01-30T05:16:38.700Z,7.04
2023-01-30T05:19:08.013Z,6.84
2023-01-30T05:21:37.112Z,6.72
2023-01-30T05:24:08.436Z,6.95
2023-01-30T05:26:37.794Z,6.80
2023-01-30T05:29:07.156Z,7.03
2023-01-30T05:31:39.005Z,6.92
2023-01-30T05:34:08.416Z,6.97
2023-01-30T05:36:37.143Z,6.76
2023-01-30T05:39:08.059Z,6.94
2023-01-30T05:41:37.239Z,6.70
2023-01-30T05:44:06.855Z,6.55
2023-01-30T05:46:36.302Z,6.47
2023-01-30T05:49:05.371Z,6.39
2023-01-30T05:51:36.534Z,6.49
2023-01-30T05:54:07.338Z,6.76
2023-01-30T05:56:36.839Z,6.63
2023-01-30T05:59:06.545Z,6.69
2023-01-30T06:01:35.928Z,6.33
2023-01-30T06:04:05.172Z,6.19
2023-01-30T06:06:36.848Z,6.12
2023-01-30T06:09:07.647Z,6.03
2023-01-30T06:11:37.120Z,6.20
2023-01-30T06:14:08.941Z,6.20
2023-01-30T06:16:38.352Z,6.45
2023-01-30T06:19:09.253Z,6.16
2023-01-30T06:21:38.539Z,6.08
2023-01-30T06:24:12.033Z,6.11
2023-01-30T06:26:43.520Z,4.86
2023-01-30T06:29:15.637Z,5.89
2023-01-30T06:31:47.554Z,5.88
2023-01-30T06:34:17.330Z,5.86
2023-01-30T06:36:46.850Z,5.84
2023-01-30T06:39:18.030Z,5.95
2023-01-30T06:41:47.745Z,5.90
2023-01-30T06:44:17.037Z,5.92
2023-01-30T06:46:46.453Z,6.03
2023-01-30T06:49:15.726Z,5.88
2023-01-30T06:51:45.021Z,5.88
2023-01-30T06:54:14.971Z,6.23
2023-01-30T06:56:46.057Z,5.90
2023-01-30T06:59:16.019Z,5.86
2023-01-30T07:01:45.334Z,6.05
2023-01-30T07:04:16.763Z,5.92
2023-01-30T07:06:46.964Z,5.64
2023-01-30T07:09:16.195Z,5.97
2023-01-30T07:11:47.839Z,6.03
2023-01-30T07:14:19.520Z,5.96
2023-01-30T07:16:49.956Z,5.98
2023-01-30T07:19:19.622Z,5.90
2023-01-30T07:21:48.900Z,5.93
2023-01-30T07:24:18.907Z,6.04
2023-01-30T07:26:51.176Z,5.97
2023-01-30T07:29:20.732Z,6.08
2023-01-30T07:31:50.203Z,5.69
2023-01-30T07:34:20.162Z,4.74
2023-01-30T07:36:49.328Z,6.01
2023-01-30T07:39:19.122Z,6.04
2023-01-30T07:41:48.773Z,6.14
2023-01-30T07:44:21.043Z,5.93
2023-01-30T07:46:51.106Z,6.03
2023-01-30T07:49:20.767Z,5.99
2023-01-30T07:51:50.456Z,5.97
2023-01-30T07:54:20.052Z,5.93
2023-01-30T07:56:49.657Z,5.99
2023-01-30T07:59:20.544Z,5.99
2023-01-30T08:01:52.397Z,6.01
2023-01-30T08:04:21.995Z,6.21
2023-01-30T08:06:52.591Z,5.95
2023-01-30T08:09:22.424Z,6.21
2023-01-30T08:11:52.875Z,6.32
2023-01-30T08:14:23.748Z,6.34
2023-01-30T08:16:53.216Z,6.28
2023-01-30T08:19:22.914Z,6.36
2023-01-30T08:21:55.136Z,6.18
2023-01-30T08:24:24.477Z,6.23
2023-01-30T08:26:56.144Z,6.26
2023-01-30T08:29:26.799Z,6.21
2023-01-30T08:31:59.076Z,6.31
2023-01-30T08:34:29.001Z,6.23
2023-01-30T08:37:00.753Z,6.16
2023-01-30T08:39:30.241Z,6.25
2023-01-30T08:41:59.647Z,6.19
2023-01-30T08:44:30.153Z,6.29
2023-01-30T08:46:59.362Z,6.31
2023-01-30T08:49:28.294Z,6.41
2023-01-30T08:51:57.993Z,6.26
2023-01-30T08:54:27.247Z,6.06
2023-01-30T08:56:56.263Z,6.31
2023-01-30T08:59:25.665Z,6.34
2023-01-30T09:01:56.132Z,6.34
2023-01-30T09:04:26.657Z,6.60
2023-01-30T09:06:56.626Z,6.48
2023-01-30T09:09:25.814Z,6.46
2023-01-30T09:11:55.438Z,6.53
2023-01-30T09:14:24.664Z,6.42
2023-01-30T09:16:56.701Z,6.52
2023-01-30T09:19:26.782Z,6.60
2023-01-30T09:21:57.770Z,6.56
2023-01-30T09:24:27.916Z,6.39
2023-01-30T09:26:59.398Z,5.40
2023-01-30T09:29:29.328Z,6.52
2023-01-30T09:32:00.377Z,6.64
2023-01-30T09:34:29.591Z,6.82
2023-01-30T09:37:00.407Z,6.56
2023-01-30T09:39:30.175Z,6.63
2023-01-30T09:42:16.416Z,6.74
2023-01-30T09:45:01.707Z,6.44
2023-01-30T09:47:42.107Z,6.49
2023-01-30T09:50:29.124Z,6.68
2023-01-30T09:53:04.472Z,6.73
2023-01-30T09:55:38.248Z,6.78
2023-01-30T09:58:14.734Z,5.31
2023-01-30T10:00:43.908Z,6.52
2023-01-30T10:03:17.264Z,6.79
2023-01-30T10:05:48.395Z,6.99
2023-01-30T10:08:54.136Z,6.41
2023-01-30T10:11:52.211Z,6.80
2023-01-30T10:14:49.714Z,6.73
2023-01-30T10:17:41.668Z,7.00
2023-01-30T10:20:31.936Z,6.92
2023-01-30T10:23:17.232Z,5.71
2023-01-30T10:25:49.970Z,7.18
2023-01-30T10:28:23.995Z,6.96
2023-01-30T10:30:57.497Z,6.80
2023-01-30T10:33:34.343Z,6.87
2023-01-30T10:36:09.597Z,6.24
2023-01-30T10:38:44.508Z,7.11
2023-01-30T10:41:25.523Z,6.92
2023-01-30T10:44:01.235Z,6.92
2023-01-30T10:46:49.225Z,6.90
2023-01-30T10:49:24.889Z,6.82
2023-01-30T10:52:02.017Z,6.81
2023-01-30T10:54:38.923Z,7.05
2023-01-30T10:57:20.380Z,6.70
2023-01-30T10:59:56.720Z,6.89
2023-01-30T11:02:33.895Z,6.90
2023-01-30T11:05:11.932Z,7.13
2023-01-30T11:07:47.306Z,6.96
2023-01-30T11:10:19.892Z,6.62
2023-01-30T11:12:55.493Z,7.02
2023-01-30T11:15:40.142Z,6.82
2023-01-30T11:18:42.192Z,7.08
2023-01-30T11:21:05.544Z,6.89
2023-01-30T11:23:41.482Z,7.15
2023-01-30T11:26:22.478Z,7.21
2023-01-30T11:28:52.307Z,7.21
2023-01-30T11:31:40.022Z,7.30
2023-01-30T11:34:16.647Z,7.30
2023-01-30T11:36:47.310Z,7.55
2023-01-30T11:39:29.817Z,7.45
2023-01-30T11:42:04.692Z,7.61
2023-01-30T11:44:36.737Z,7.60
2023-01-30T11:47:10.384Z,7.76
2023-01-30T11:49:49.653Z,7.87
2023-01-30T11:52:31.413Z,7.90
2023-01-30T11:55:05.903Z,7.94
2023-01-30T11:57:42.990Z,8.03
2023-01-30T12:00:18.616Z,7.27
2023-01-30T12:02:49.738Z,7.78
2023-01-30T12:05:27.467Z,7.70
2023-01-30T12:08:14.472Z,8.03
2023-01-30T12:10:47.580Z,8.04
2023-01-30T12:13:21.893Z,7.86
2023-01-30T12:15:58.283Z,7.88
2023-01-30T12:18:33.721Z,7.93
2023-01-30T12:21:04.793Z,7.97
2023-01-30T12:23:41.316Z,7.99
2023-01-30T12:26:17.096Z,7.79
2023-01-30T12:28:53.399Z,7.87
2023-01-30T12:31:31.681Z,7.98
2023-01-30T12:34:01.485Z,8.13
2023-01-30T12:36:42.660Z,8.03
2023-01-30T12:39:21.303Z,8.20
2023-01-30T12:42:15.514Z,8.21
2023-01-30T12:45:06.479Z,8.28
2023-01-30T12:47:56.607Z,8.31
2023-01-30T12:50:34.777Z,8.33
2023-01-30T12:53:33.068Z,8.34
2023-01-30T12:56:18.956Z,8.25
2023-01-30T12:58:56.004Z,8.39
2023-01-30T13:01:35.252Z,8.36
2023-01-30T13:04:15.520Z,8.64
2023-01-30T13:06:56.310Z,8.46
2023-01-30T13:09:40.231Z,8.21
2023-01-30T13:12:18.446Z,8.27
2023-01-30T13:14:57.259Z,7.95
2023-01-30T13:17:40.989Z,8.05
2023-01-30T13:20:18.574Z,8.11
2023-01-30T13:22:55.652Z,8.05
2023-01-30T13:25:33.939Z,7.97
2023-01-30T13:28:11.373Z,7.70
2023-01-30T13:30:45.350Z,7.64
2023-01-30T13:33:22.192Z,7.75
2023-01-30T13:35:57.962Z,7.65
2023-01-30T13:38:29.082Z,7.82
2023-01-30T13:41:01.215Z,7.76
2023-01-30T13:43:35.507Z,7.40
2023-01-30T13:46:12.179Z,7.57
2023-01-30T13:48:56.829Z,7.49
2023-01-30T13:51:44.561Z,7.54
2023-01-30T13:54:27.319Z,7.24
2023-01-30T13:57:05.340Z,7.40
2023-01-30T13:59:55.895Z,7.51
2023-01-30T14:02:27.262Z,7.45
2023-01-30T14:04:58.071Z,7.15
2023-01-30T14:07:31.276Z,7.54
2023-01-30T14:10:16.912Z,7.55
2023-01-30T14:12:49.148Z,7.55
2023-01-30T14:15:29.039Z,7.68
2023-01-30T14:18:03.234Z,7.67
2023-01-30T14:20:34.642Z,6.24
2023-01-30T14:23:20.753Z,7.57
2023-01-30T14:25:53.378Z,7.46
2023-01-30T14:29:01.970Z,7.79
2023-01-30T14:32:03.705Z,7.69
2023-01-30T14:34:45.099Z,7.54
2023-01-30T14:37:57.977Z,7.64
2023-01-30T14:40:36.690Z,7.48
2023-01-30T14:43:42.584Z,7.47
2023-01-30T14:46:54.794Z,7.43
2023-01-30T14:49:33.904Z,7.49
2023-01-30T14:52:06.449Z,7.37
2023-01-30T14:54:44.947Z,7.44
2023-01-30T14:57:24.401Z,7.36
2023-01-30T15:02:54.659Z,7.45
2023-01-30T15:05:31.829Z,7.39
2023-01-30T15:08:10.225Z,7.32
2023-01-30T15:10:53.839Z,7.22
2023-01-30T15:13:40.876Z,7.31
2023-01-30T15:16:34.588Z,7.24
2023-01-30T15:19:20.628Z,7.14
2023-01-30T15:22:15.643Z,7.02
2023-01-30T15:25:07.337Z,6.98
2023-01-30T15:27:47.792Z,7.23
2023-01-30T15:30:25.329Z,7.25
2023-01-30T15:33:29.233Z,7.20
2023-01-30T15:36:01.185Z,7.13
2023-01-30T15:38:32.296Z,7.26
2023-01-30T15:41:06.196Z,7.23
2023-01-30T15:44:01.234Z,7.26
2023-01-30T15:46:40.159Z,7.31
2023-01-30T15:49:49.603Z,6.91
2023-01-30T15:52:26.413Z,7.00
2023-01-30T15:54:58.454Z,6.06
2023-01-30T15:57:33.991Z,7.20
2023-01-30T16:00:06.201Z,7.05
2023-01-30T16:02:44.893Z,7.14
2023-01-30T16:05:19.406Z,6.85
2023-01-30T16:07:50.823Z,6.80
2023-01-30T16:10:22.708Z,6.94
2023-01-30T16:12:57.297Z,6.72
2023-01-30T16:15:33.337Z,6.77
2023-01-30T16:18:06.822Z,6.96
2023-01-30T16:20:55.331Z,6.69
2023-01-30T16:23:32.785Z,7.03
2023-01-30T16:26:03.426Z,6.76
2023-01-30T16:28:35.436Z,6.55
2023-01-30T16:31:07.769Z,6.16
2023-01-30T16:33:37.816Z,6.21
2023-01-30T16:36:29.872Z,6.17
2023-01-30T16:39:00.568Z,5.88
2023-01-30T16:41:32.739Z,5.97
2023-01-30T16:44:24.168Z,6.76
2023-01-30T16:46:58.100Z,6.52
2023-01-30T16:49:44.304Z,6.46
2023-01-30T16:52:19.756Z,6.25
2023-01-30T16:54:52.693Z,6.39
2023-01-30T16:57:31.967Z,6.34
2023-01-30T17:00:10.214Z,6.22
2023-01-30T17:02:43.004Z,6.17
2023-01-30T17:05:20.616Z,6.12
2023-01-30T17:07:51.436Z,6.34
2023-01-30T17:10:54.779Z,6.38
2023-01-30T17:13:34.057Z,6.22
2023-01-30T17:16:35.319Z,6.07
2023-01-30T17:19:05.102Z,5.55
2023-01-30T17:21:44.078Z,6.20
2023-01-30T17:24:16.517Z,6.29
2023-01-30T17:26:49.077Z,6.25
2023-01-30T17:29:41.042Z,6.17
2023-01-30T17:32:14.710Z,6.21
2023-01-30T17:34:44.497Z,6.31
2023-01-30T17:37:16.876Z,6.05
2023-01-30T17:39:46.261Z,6.11
2023-01-30T17:42:18.138Z,6.29
2023-01-30T17:44:47.218Z,6.35
2023-01-30T17:47:19.000Z,6.21
2023-01-30T17:49:48.922Z,6.17
2023-01-30T17:52:19.739Z,6.12
2023-01-30T17:54:49.188Z,5.84
2023-01-30T17:57:20.298Z,5.92
2023-01-30T17:59:55.832Z,5.87
2023-01-30T18:07:42.886Z,5.85
2023-01-30T18:10:15.880Z,5.87
2023-01-30T18:12:45.605Z,5.73
2023-01-30T18:15:16.567Z,5.45
2023-01-30T18:17:49.489Z,5.57
2023-01-30T18:20:20.864Z,5.58
2023-01-30T18:22:51.620Z,5.31
2023-01-30T18:25:23.533Z,5.44
2023-01-30T18:27:53.078Z,5.42
2023-01-30T18:30:25.216Z,5.40
2023-01-30T18:32:57.080Z,5.41
2023-01-30T18:35:26.617Z,5.46
2023-01-30T18:38:02.655Z,5.22
2023-01-30T18:40:36.368Z,5.26
2023-01-30T18:43:07.394Z,5.28
2023-01-30T18:45:40.064Z,5.38
2023-01-30T18:48:11.746Z,5.35
2023-01-30T18:50:44.503Z,5.29
2023-01-30T18:53:16.721Z,5.23
2023-01-30T18:55:54.183Z,5.12
2023-01-30T18:58:27.497Z,5.17
2023-01-30T19:01:00.759Z,4.23
2023-01-30T19:03:33.949Z,5.55
2023-01-30T19:06:04.210Z,5.78
2023-01-30T19:08:35.192Z,5.51
2023-01-30T19:11:22.449Z,5.68
2023-01-30T19:13:56.323Z,5.78
2023-01-30T19:16:28.664Z,5.46
2023-01-30T19:19:00.689Z,5.01
2023-01-30T19:21:32.998Z,5.26
2023-01-30T19:24:08.272Z,5.21
2023-01-30T19:26:37.919Z,5.42
2023-01-30T19:29:07.803Z,5.20
2023-01-30T19:31:37.915Z,4.42
2023-01-30T19:34:07.965Z,5.56
2023-01-30T19:36:38.077Z,5.45
2023-01-30T19:39:09.482Z,5.16
2023-01-30T19:41:41.465Z,5.21
2023-01-30T19:44:15.330Z,3.79
2023-01-30T19:46:46.493Z,5.14
2023-01-30T19:49:18.067Z,5.24
2023-01-30T19:51:51.103Z,5.23
2023-01-30T19:54:25.842Z,5.17
2023-01-30T19:56:56.156Z,5.32
2023-01-30T19:59:29.967Z,5.46
2023-01-30T20:02:00.023Z,5.69
2023-01-30T20:04:29.932Z,5.40
2023-01-30T20:06:59.759Z,5.31
2023-01-30T20:09:31.010Z,5.23
2023-01-30T20:12:00.779Z,5.19
2023-01-30T20:14:30.062Z,5.39
2023-01-30T20:16:59.539Z,5.23
2023-01-30T20:19:29.146Z,5.35
2023-01-30T20:21:59.797Z,5.31
2023-01-30T20:24:31.200Z,5.32
2023-01-30T20:27:01.080Z,5.17
2023-01-30T20:29:30.954Z,5.17
2023-01-30T20:32:00.538Z,5.13
2023-01-30T20:34:30.012Z,5.21
2023-01-30T20:37:00.167Z,5.16
2023-01-30T20:39:30.949Z,5.60
2023-01-30T20:42:00.439Z,5.64
2023-01-30T20:44:29.866Z,5.69
2023-01-30T20:47:01.629Z,5.52
2023-01-30T20:49:30.814Z,5.74
2023-01-30T20:52:00.338Z,5.71
2023-01-30T20:54:30.981Z,5.54
2023-01-30T20:57:03.830Z,5.70
2023-01-30T20:59:33.477Z,5.57
2023-01-30T21:02:03.126Z,5.45
2023-01-30T21:04:32.333Z,5.32
2023-01-30T21:07:02.483Z,5.16
2023-01-30T21:09:32.899Z,5.34
2023-01-30T21:12:02.415Z,5.00
2023-01-30T21:14:31.661Z,5.19
2023-01-30T21:17:01.604Z,4.93
2023-01-30T21:19:30.965Z,5.23
2023-01-30T21:22:07.498Z,5.40
2023-01-30T21:24:39.547Z,5.43
2023-01-30T21:27:09.281Z,5.52
2023-01-30T21:29:39.146Z,5.47
2023-01-30T21:32:08.744Z,5.41
2023-01-30T21:34:37.958Z,5.37
2023-01-30T21:37:25.247Z,5.44
2023-01-30T21:40:13.842Z,5.31
2023-01-30T21:43:01.106Z,5.31
2023-01-30T21:45:32.699Z,5.06
2023-01-30T21:48:02.376Z,5.37
2023-01-30T21:50:31.598Z,5.28
2023-01-30T21:53:01.870Z,5.26
2023-01-30T21:55:32.562Z,3.73
2023-01-30T21:58:03.386Z,5.28
2023-01-30T22:00:33.362Z,4.95
2023-01-30T22:03:02.449Z,5.16
2023-01-30T22:05:36.758Z,5.14
2023-01-30T22:08:06.421Z,5.10
2023-01-30T22:10:37.415Z,4.92
2023-01-30T22:13:06.620Z,4.93
2023-01-30T22:15:36.309Z,4.57
2023-01-30T22:18:05.754Z,4.77
2023-01-30T22:20:35.282Z,4.75
2023-01-30T22:23:40.153Z,4.74
2023-01-30T22:26:12.615Z,4.62
2023-01-30T22:28:42.006Z,4.32
2023-01-30T22:31:13.062Z,4.18
2023-01-30T22:33:45.576Z,4.12
2023-01-30T22:36:14.819Z,4.09
2023-01-30T22:38:44.355Z,4.04
2023-01-30T22:41:17.388Z,4.10
2023-01-30T22:43:48.430Z,4.04
2023-01-30T22:46:19.723Z,4.07
2023-01-30T22:48:49.462Z,4.11
2023-01-30T22:51:21.601Z,4.09
2023-01-30T22:53:53.464Z,4.13
2023-01-30T22:56:27.362Z,4.27
2023-01-30T22:58:58.281Z,4.27
2023-01-30T23:01:29.574Z,4.31
2023-01-30T23:04:00.559Z,4.05
2023-01-30T23:06:31.549Z,4.26
2023-01-30T23:09:01.978Z,4.11
2023-01-30T23:11:34.506Z,3.95
2023-01-30T23:14:09.684Z,3.63
2023-01-30T23:16:41.119Z,3.52
2023-01-30T23:19:11.352Z,4.02
2023-01-30T23:21:42.683Z,3.90
2023-01-30T23:24:14.733Z,3.98
2023-01-30T23:26:47.435Z,3.84
2023-01-30T23:29:19.475Z,3.78
2023-01-30T23:31:49.447Z,3.82
2023-01-30T23:34:20.476Z,3.80
2023-01-30T23:36:50.031Z,3.41
2023-01-30T23:39:20.277Z,3.77
2023-01-30T23:41:51.620Z,3.89
2023-01-30T23:44:21.489Z,3.94
2023-01-30T23:46:51.115Z,3.79
2023-01-30T23:49:20.997Z,3.53
2023-01-30T23:51:50.971Z,3.65
2023-01-30T23:54:20.607Z,3.60
2023-01-30T23:56:51.673Z,3.85
2023-01-30T23:59:21.290Z,3.75
